• Join FlightAware (Why Join?)
  • Login
  • US Flag 
04:40AM EDT


 

Airport Tracker/Info


-or-


 

Live Flight TrackerFlight Track Log ✈ DAL110 ✈ 12-Jun-2013 ✈ SAEZ / EZE - KATL

Flight Track Log - Related Links

Times and Time Zones

All times are in EDT time to prevent confusion due to time zone crossing. See the DAL110 flight status page for this flight to view local times or setup timezone preferences in your user account.

Time Position Orientation Groundspeed Altitude Reporting Facility
EDT Latitude Longitude Course Direction KTS MPH feet Rate Location/Type
07:43PM -34.7100 -58.5818 339° North  Level FlightAware Approximate
07:44PM -34.5965 -58.6346 339° North  Level FlightAware Approximate
07:45PM -34.4830 -58.6873 339° North  Level FlightAware Approximate
07:46PM -34.3689 -58.7402 339° North  Level FlightAware Approximate
07:47PM -34.2547 -58.7928 339° North  Level FlightAware Approximate
07:48PM -34.1406 -58.8453 339° North  Level FlightAware Approximate
07:49PM -34.0264 -58.8977 339° North  Level FlightAware Approximate
07:50PM -33.9122 -58.9500 339° North  Level FlightAware Approximate
07:51PM -33.7980 -59.0021 339° North  Level FlightAware Approximate
07:52PM -33.6837 -59.0541 339° North  Level FlightAware Approximate
07:53PM -33.5694 -59.1059 339° North  Level FlightAware Approximate
07:54PM -33.4552 -59.1576 339° North  Level FlightAware Approximate
07:55PM -33.3408 -59.2091 339° North  Level FlightAware Approximate
07:56PM -33.2240 -59.2619 339° North  Level FlightAware Approximate
07:57PM -33.1099 -59.3139 339° North  Level FlightAware Approximate
07:58PM -32.9957 -59.3657 339° North  Level FlightAware Approximate
07:59PM -32.8815 -59.4175 339° North  Level FlightAware Approximate
08:00PM -32.7674 -59.4691 339° North  Level FlightAware Approximate
08:01PM -32.6531 -59.5205 339° North  Level FlightAware Approximate
08:02PM -32.5389 -59.5719 339° North  Level FlightAware Approximate
08:03PM -32.4247 -59.6231 339° North  Level FlightAware Approximate
08:04PM -32.3104 -59.6742 339° North  Level FlightAware Approximate
08:05PM -32.1961 -59.7251 339° North  Level FlightAware Approximate
08:06PM -32.0818 -59.7759 339° North  Level FlightAware Approximate
08:07PM -31.9675 -59.8266 339° North  Level FlightAware Approximate
08:08PM -31.8531 -59.8772 339° North  Level FlightAware Approximate
08:09PM -31.7388 -59.9276 339° North  Level FlightAware Approximate
08:10PM -31.6244 -59.9780 339° North  Level FlightAware Approximate
08:11PM -31.5100 -60.0282 339° North  Level FlightAware Approximate
08:12PM -31.3955 -60.0782 340° North  Level FlightAware Approximate
08:13PM -31.2811 -60.1282 340° North  Level FlightAware Approximate
08:14PM -31.1666 -60.1780 340° North  Level FlightAware Approximate
08:15PM -31.0521 -60.2277 340° North  Level FlightAware Approximate
08:16PM -30.9376 -60.2773 340° North  Level FlightAware Approximate
08:17PM -30.8231 -60.3268 340° North  Level FlightAware Approximate
08:18PM -30.7085 -60.3761 340° North  Level FlightAware Approximate
08:19PM -30.5940 -60.4254 340° North  Level FlightAware Approximate
08:20PM -30.4794 -60.4745 340° North  Level FlightAware Approximate
08:21PM -30.3648 -60.5235 340° North  Level FlightAware Approximate
08:22PM -30.2502 -60.5724 340° North  Level FlightAware Approximate
08:23PM -30.1355 -60.6212 340° North  Level FlightAware Approximate
08:24PM -30.0208 -60.6698 340° North  Level FlightAware Approximate
08:25PM -29.9062 -60.7184 340° North  Level FlightAware Approximate
08:26PM -29.7915 -60.7668 340° North  Level FlightAware Approximate
08:27PM -29.6768 -60.8151 340° North  Level FlightAware Approximate
08:28PM -29.5620 -60.8634 340° North  Level FlightAware Approximate
08:29PM -29.4473 -60.9115 340° North  Level FlightAware Approximate
08:30PM -29.3325 -60.9595 340° North  Level FlightAware Approximate
08:31PM -29.2178 -61.0074 340° North  Level FlightAware Approximate
08:32PM -29.1029 -61.0551 340° North  Level FlightAware Approximate
08:33PM -28.9881 -61.1028 340° North  Level FlightAware Approximate
08:34PM -28.8733 -61.1504 340° North  Level FlightAware Approximate
08:35PM -28.7585 -61.1979 340° North  Level FlightAware Approximate
08:36PM -28.6436 -61.2452 340° North  Level FlightAware Approximate
08:37PM -28.5287 -61.2925 340° North  Level FlightAware Approximate
08:38PM -28.4138 -61.3396 340° North  Level FlightAware Approximate
08:39PM -28.2989 -61.3867 340° North  Level FlightAware Approximate
08:40PM -28.1840 -61.4336 340° North  Level FlightAware Approximate
08:41PM -28.0690 -61.4805 340° North  Level FlightAware Approximate
08:42PM -27.9541 -61.5272 340° North  Level FlightAware Approximate
08:43PM -27.8391 -61.5739 340° North  Level FlightAware Approximate
08:44PM -27.7241 -61.6204 340° North  Level FlightAware Approximate
08:45PM -27.6091 -61.6669 340° North  Level FlightAware Approximate
08:46PM -27.4941 -61.7132 340° North  Level FlightAware Approximate
08:47PM -27.3790 -61.7595 340° North  Level FlightAware Approximate
08:48PM -27.2640 -61.8057 340° North  Level FlightAware Approximate
08:49PM -27.1489 -61.8517 340° North  Level FlightAware Approximate
08:50PM -27.0338 -61.8977 340° North  Level FlightAware Approximate
08:51PM -26.9187 -61.9436 340° North  Level FlightAware Approximate
08:52PM -26.8036 -61.9894 340° North  Level FlightAware Approximate
08:53PM -26.6885 -62.0351 340° North  Level FlightAware Approximate
08:54PM -26.5734 -62.0807 340° North  Level FlightAware Approximate
08:55PM -26.4582 -62.1262 341° North  Level FlightAware Approximate
08:56PM -26.3430 -62.1716 341° North  Level FlightAware Approximate
08:57PM -26.2278 -62.2169 341° North  Level FlightAware Approximate
08:58PM -26.1126 -62.2622 341° North  Level FlightAware Approximate
08:59PM -25.9974 -62.3073 341° North  Level FlightAware Approximate
09:00PM -25.8822 -62.3524 341° North  Level FlightAware Approximate
09:01PM -25.7670 -62.3974 341° North  Level FlightAware Approximate
09:02PM -25.6517 -62.4422 341° North  Level FlightAware Approximate
09:03PM -25.5364 -62.4870 341° North  Level FlightAware Approximate
09:04PM -25.4211 -62.5317 341° North  Level FlightAware Approximate
09:05PM -25.3058 -62.5764 341° North  Level FlightAware Approximate
09:06PM -25.1905 -62.6209 341° North  Level FlightAware Approximate
09:07PM -25.0752 -62.6654 341° North  Level FlightAware Approximate
09:08PM -24.9599 -62.7098 341° North  Level FlightAware Approximate
09:09PM -24.8445 -62.7541 341° North  Level FlightAware Approximate
09:10PM -24.7292 -62.7983 341° North  Level FlightAware Approximate
09:11PM -24.6138 -62.8424 341° North  Level FlightAware Approximate
09:12PM -24.4984 -62.8864 341° North  Level FlightAware Approximate
09:13PM -24.3830 -62.9304 341° North  Level FlightAware Approximate
09:14PM -24.2676 -62.9743 341° North  Level FlightAware Approximate
09:15PM -24.1518 -63.0182 341° North  Level FlightAware Approximate
09:16PM -24.0359 -63.0621 341° North  Level FlightAware Approximate
09:17PM -23.9201 -63.1059 341° North  Level FlightAware Approximate
09:18PM -23.8043 -63.1496 341° North  Level FlightAware Approximate
09:19PM -23.6884 -63.1933 341° North  Level FlightAware Approximate
09:20PM -23.5725 -63.2368 341° North  Level FlightAware Approximate
09:21PM -23.4566 -63.2803 341° North  Level FlightAware Approximate
09:22PM -23.3407 -63.3237 341° North  Level FlightAware Approximate
09:23PM -23.2248 -63.3670 341° North  Level FlightAware Approximate
09:24PM -23.1089 -63.4103 341° North  Level FlightAware Approximate
09:25PM -22.9930 -63.4535 341° North  Level FlightAware Approximate
09:26PM -22.8770 -63.4966 341° North  Level FlightAware Approximate
09:27PM -22.7611 -63.5396 341° North  Level FlightAware Approximate
09:28PM -22.6451 -63.5826 341° North  Level FlightAware Approximate
09:29PM -22.5291 -63.6255 341° North  Level FlightAware Approximate
09:30PM -22.4131 -63.6683 341° North  Level FlightAware Approximate
09:31PM -22.2971 -63.7110 341° North  Level FlightAware Approximate
09:32PM -22.1811 -63.7537 341° North  Level FlightAware Approximate
09:33PM -22.0651 -63.7963 341° North  Level FlightAware Approximate
09:34PM -21.9491 -63.8388 341° North  Level FlightAware Approximate
09:35PM -21.8330 -63.8813 341° North  Level FlightAware Approximate
09:36PM -21.7170 -63.9237 341° North  Level FlightAware Approximate
09:37PM -21.6009 -63.9660 341° North  Level FlightAware Approximate
09:38PM -21.4848 -64.0083 341° North  Level FlightAware Approximate
09:39PM -21.3687 -64.0505 341° North  Level FlightAware Approximate
09:40PM -21.2526 -64.0926 341° North  Level FlightAware Approximate
09:41PM -21.1365 -64.1346 341° North  Level FlightAware Approximate
09:42PM -21.0204 -64.1766 341° North  Level FlightAware Approximate
09:43PM -20.9043 -64.2186 341° North  Level FlightAware Approximate
09:44PM -20.7881 -64.2604 341° North  Level FlightAware Approximate
09:45PM -20.6720 -64.3022 341° North  Level FlightAware Approximate
09:46PM -20.5558 -64.3439 341° North  Level FlightAware Approximate
09:47PM -20.4396 -64.3856 341° North  Level FlightAware Approximate
09:48PM -20.3235 -64.4272 341° North  Level FlightAware Approximate
09:49PM -20.2073 -64.4688 341° North  Level FlightAware Approximate
09:50PM -20.0911 -64.5102 341° North  Level FlightAware Approximate
09:51PM -19.9749 -64.5517 341° North  Level FlightAware Approximate
09:52PM -19.8586 -64.5930 341° North  Level FlightAware Approximate
09:53PM -19.7424 -64.6343 342° North  Level FlightAware Approximate
09:54PM -19.6262 -64.6756 342° North  Level FlightAware Approximate
09:55PM -19.5099 -64.7168 342° North  Level FlightAware Approximate
09:56PM -19.3937 -64.7579 342° North  Level FlightAware Approximate
09:57PM -19.2774 -64.7989 342° North  Level FlightAware Approximate
09:58PM -19.1611 -64.8399 342° North  Level FlightAware Approximate
09:59PM -19.0448 -64.8809 342° North  Level FlightAware Approximate
10:00PM -18.9285 -64.9218 342° North  Level FlightAware Approximate
10:01PM -18.8122 -64.9626 342° North  Level FlightAware Approximate
10:02PM -18.6959 -65.0034 342° North  Level FlightAware Approximate
10:03PM -18.5796 -65.0441 342° North  Level FlightAware Approximate
10:04PM -18.4633 -65.0848 342° North  Level FlightAware Approximate
10:05PM -18.3469 -65.1254 342° North  Level FlightAware Approximate
10:06PM -18.2306 -65.1659 342° North  Level FlightAware Approximate
10:07PM -18.1142 -65.2064 342° North  Level FlightAware Approximate
10:08PM -17.9979 -65.2469 342° North  Level FlightAware Approximate
10:09PM -17.8815 -65.2873 342° North  Level FlightAware Approximate
10:10PM -17.7651 -65.3276 342° North  Level FlightAware Approximate
10:11PM -17.6487 -65.3679 342° North  Level FlightAware Approximate
10:12PM -17.5323 -65.4081 342° North  Level FlightAware Approximate
10:13PM -17.4159 -65.4483 342° North  Level FlightAware Approximate
10:14PM -17.2995 -65.4884 342° North  Level FlightAware Approximate
10:15PM -17.1831 -65.5285 342° North  Level FlightAware Approximate
10:16PM -17.0667 -65.5686 342° North  Level FlightAware Approximate
10:17PM -16.9502 -65.6085 342° North  Level FlightAware Approximate
10:18PM -16.8338 -65.6485 342° North  Level FlightAware Approximate
10:19PM -16.7173 -65.6883 342° North  Level FlightAware Approximate
10:20PM -16.6009 -65.7282 342° North  Level FlightAware Approximate
10:21PM -16.4844 -65.7680 342° North  Level FlightAware Approximate
10:22PM -16.3679 -65.8077 342° North  Level FlightAware Approximate
10:23PM -16.2515 -65.8474 342° North  Level FlightAware Approximate
10:24PM -16.1350 -65.8870 342° North  Level FlightAware Approximate
10:25PM -16.0185 -65.9266 342° North  Level FlightAware Approximate
10:26PM -15.9020 -65.9662 342° North  Level FlightAware Approximate
10:27PM -15.7855 -66.0057 342° North  Level FlightAware Approximate
10:28PM -15.6689 -66.0452 342° North  Level FlightAware Approximate
10:29PM -15.5524 -66.0846 342° North  Level FlightAware Approximate
10:30PM -15.4359 -66.1239 342° North  Level FlightAware Approximate
10:31PM -15.3193 -66.1633 342° North  Level FlightAware Approximate
10:32PM -15.2028 -66.2025 342° North  Level FlightAware Approximate
10:33PM -15.0862 -66.2418 342° North  Level FlightAware Approximate
10:34PM -14.9697 -66.2810 342° North  Level FlightAware Approximate
10:35PM -14.8531 -66.3201 342° North  Level FlightAware Approximate
10:36PM -14.7371 -66.3590 342° North  Level FlightAware Approximate
10:37PM -14.6211 -66.3979 342° North  Level FlightAware Approximate
10:38PM -14.5051 -66.4368 342° North  Level FlightAware Approximate
10:39PM -14.3891 -66.4755 342° North  Level FlightAware Approximate
10:40PM -14.2731 -66.5143 342° North  Level FlightAware Approximate
10:41PM -14.1571 -66.5530 342° North  Level FlightAware Approximate
10:42PM -14.0410 -66.5917 342° North  Level FlightAware Approximate
10:43PM -13.9250 -66.6303 342° North  Level FlightAware Approximate
10:44PM -13.8089 -66.6689 342° North  Level FlightAware Approximate
10:45PM -13.6929 -66.7075 342° North  Level FlightAware Approximate
10:46PM -13.5768 -66.7460 342° North  Level FlightAware Approximate
10:47PM -13.4608 -66.7845 342° North  Level FlightAware Approximate
10:48PM -13.3447 -66.8229 342° North  Level FlightAware Approximate
10:49PM -13.2286 -66.8613 342° North  Level FlightAware Approximate
10:50PM -13.1125 -66.8997 342° North  Level FlightAware Approximate
10:51PM -12.9965 -66.9380 342° North  Level FlightAware Approximate
10:52PM -12.8804 -66.9763 342° North  Level FlightAware Approximate
10:53PM -12.7643 -67.0146 342° North  Level FlightAware Approximate
10:54PM -12.6482 -67.0528 342° North  Level FlightAware Approximate
10:55PM -12.5321 -67.0910 342° North  Level FlightAware Approximate
10:56PM -12.4160 -67.1292 342° North  Level FlightAware Approximate
10:57PM -12.2998 -67.1673 342° North  Level FlightAware Approximate
10:58PM -12.1837 -67.2054 342° North  Level FlightAware Approximate
10:59PM -12.0676 -67.2434 342° North  Level FlightAware Approximate
11:00PM -11.9515 -67.2815 342° North  Level FlightAware Approximate
11:01PM -11.8353 -67.3195 342° North  Level FlightAware Approximate
11:02PM -11.7192 -67.3574 342° North  Level FlightAware Approximate
11:03PM -11.6030 -67.3953 342° North  Level FlightAware Approximate
11:04PM -11.4869 -67.4333 342° North  Level FlightAware Approximate
11:05PM -11.3707 -67.4711 342° North  Level FlightAware Approximate
11:06PM -11.2546 -67.5089 342° North  Level FlightAware Approximate
11:07PM -11.1384 -67.5468 342° North  Level FlightAware Approximate
11:08PM -11.0222 -67.5845 342° North  Level FlightAware Approximate
11:09PM -10.9060 -67.6223 342° North  Level FlightAware Approximate
11:10PM -10.7899 -67.6600 342° North  Level FlightAware Approximate
11:11PM -10.6737 -67.6977 342° North  Level FlightAware Approximate
11:12PM -10.5575 -67.7353 342° North  Level FlightAware Approximate
11:13PM -10.4413 -67.7729 342° North  Level FlightAware Approximate
11:14PM -10.3251 -67.8105 342° North  Level FlightAware Approximate
11:15PM -10.2089 -67.8481 342° North  Level FlightAware Approximate
11:16PM -10.0927 -67.8857 342° North  Level FlightAware Approximate
11:17PM -9.9765 -67.9232 342° North  Level FlightAware Approximate
11:18PM -9.8603 -67.9607 342° North  Level FlightAware Approximate
11:19PM -9.7440 -67.9981 342° North  Level FlightAware Approximate
11:20PM -9.6278 -68.0356 342° North  Level FlightAware Approximate
11:21PM -9.5116 -68.0730 342° North  Level FlightAware Approximate
11:22PM -9.3954 -68.1104 342° North  Level FlightAware Approximate
11:23PM -9.2791 -68.1477 342° North  Level FlightAware Approximate
11:24PM -9.1629 -68.1851 342° North  Level FlightAware Approximate
11:25PM -9.0466 -68.2224 342° North  Level FlightAware Approximate
11:26PM -8.9304 -68.2597 342° North  Level FlightAware Approximate
11:27PM -8.8141 -68.2970 342° North  Level FlightAware Approximate
11:28PM -8.6979 -68.3342 342° North  Level FlightAware Approximate
11:29PM -8.5816 -68.3714 342° North  Level FlightAware Approximate
11:30PM -8.4654 -68.4086 342° North  Level FlightAware Approximate
11:31PM -8.3491 -68.4458 342° North  Level FlightAware Approximate
11:32PM -8.2328 -68.4829 342° North  Level FlightAware Approximate
11:33PM -8.1165 -68.5201 342° North  Level FlightAware Approximate
11:34PM -8.0003 -68.5572 342° North  Level FlightAware Approximate
11:35PM -7.8840 -68.5943 342° North  Level FlightAware Approximate
11:36PM -7.7677 -68.6313 342° North  Level FlightAware Approximate
11:37PM -7.6514 -68.6684 342° North  Level FlightAware Approximate
11:38PM -7.5351 -68.7054 342° North  Level FlightAware Approximate
11:39PM -7.4188 -68.7424 342° North  Level FlightAware Approximate
11:40PM -7.3025 -68.7794 342° North  Level FlightAware Approximate
11:41PM -7.1862 -68.8164 342° North  Level FlightAware Approximate
11:42PM -7.0699 -68.8533 343° North  Level FlightAware Approximate
11:43PM -6.9536 -68.8903 343° North  Level FlightAware Approximate
11:44PM -6.8373 -68.9272 343° North  Level FlightAware Approximate
11:45PM -6.7210 -68.9641 343° North  Level FlightAware Approximate
11:46PM -6.6047 -69.0009 343° North  Level FlightAware Approximate
11:47PM -6.4884 -69.0378 343° North  Level FlightAware Approximate
11:48PM -6.3721 -69.0746 343° North  Level FlightAware Approximate
11:50PM -6.0910 -69.1636 343° North  Level FlightAware Approximate
11:52PM -5.9068 -69.2218 343° North  Level FlightAware Approximate
11:53PM -5.7904 -69.2586 343° North  Level FlightAware Approximate
11:54PM -5.6741 -69.2953 343° North  Level FlightAware Approximate
11:55PM -5.5578 -69.3321 343° North  Level FlightAware Approximate
11:56PM -5.4414 -69.3688 343° North  Level FlightAware Approximate
11:57PM -5.3251 -69.4055 343° North  Level FlightAware Approximate
11:58PM -5.2095 -69.4419 343° North  Level FlightAware Approximate
11:59PM -5.0939 -69.4784 343° North  Level FlightAware Approximate
12:00AM -4.9783 -69.5148 343° North  Level FlightAware Approximate
12:01AM -4.8628 -69.5512 343° North  Level FlightAware Approximate
12:02AM -4.7472 -69.5876 343° North  Level FlightAware Approximate
12:03AM -4.6316 -69.6240 343° North  Level FlightAware Approximate
12:04AM -4.5160 -69.6603 343° North  Level FlightAware Approximate
12:05AM -4.4004 -69.6967 343° North  Level FlightAware Approximate
12:06AM -4.2848 -69.7331 343° North  Level FlightAware Approximate
12:07AM -4.1692 -69.7694 343° North  Level FlightAware Approximate
12:08AM -4.0536 -69.8057 343° North  Level FlightAware Approximate
12:09AM -3.9380 -69.8420 343° North  Level FlightAware Approximate
12:10AM -3.8224 -69.8783 343° North  Level FlightAware Approximate
12:11AM -3.7068 -69.9146 343° North  Level FlightAware Approximate
12:12AM -3.5912 -69.9509 343° North  Level FlightAware Approximate
12:13AM -3.4756 -69.9872 343° North  Level FlightAware Approximate
12:14AM -3.3600 -70.0235 343° North  Level FlightAware Approximate
12:15AM -3.2444 -70.0597 343° North  Level FlightAware Approximate
12:16AM -3.1288 -70.0960 343° North  Level FlightAware Approximate
12:17AM -3.0132 -70.1322 343° North  Level FlightAware Approximate
12:18AM -2.8976 -70.1685 343° North  Level FlightAware Approximate
12:19AM -2.7820 -70.2047 343° North  Level FlightAware Approximate
12:20AM -2.6664 -70.2409 343° North  Level FlightAware Approximate
12:21AM -2.5508 -70.2771 343° North  Level FlightAware Approximate
12:22AM -2.4352 -70.3133 343° North  Level FlightAware Approximate
12:23AM -2.3196 -70.3495 343° North  Level FlightAware Approximate
12:24AM -2.2039 -70.3857 343° North  Level FlightAware Approximate
12:25AM -2.0883 -70.4219 343° North  Level FlightAware Approximate
12:26AM -1.9727 -70.4581 343° North  Level FlightAware Approximate
12:27AM -1.8571 -70.4943 343° North  Level FlightAware Approximate
12:28AM -1.7415 -70.5304 343° North  Level FlightAware Approximate
12:29AM -1.6258 -70.5666 343° North  Level FlightAware Approximate
12:30AM -1.5102 -70.6028 343° North  Level FlightAware Approximate
12:31AM -1.3946 -70.6389 343° North  Level FlightAware Approximate
12:32AM -1.2790 -70.6751 343° North  Level FlightAware Approximate
12:33AM -1.1634 -70.7113 343° North  Level FlightAware Approximate
12:34AM -1.0477 -70.7474 343° North  Level FlightAware Approximate
12:35AM -0.9321 -70.7836 343° North  Level FlightAware Approximate
12:36AM -0.8165 -70.8197 343° North  Level FlightAware Approximate
12:37AM -0.7009 -70.8559 343° North  Level FlightAware Approximate
12:38AM -0.5853 -70.8920 343° North  Level FlightAware Approximate
12:39AM -0.4697 -70.9281 343° North  Level FlightAware Approximate
12:40AM -0.3540 -70.9643 343° North  Level FlightAware Approximate
12:41AM -0.2384 -71.0004 343° North  Level FlightAware Approximate
12:42AM -0.1228 -71.0366 343° North  Level FlightAware Approximate
12:43AM -0.0072 -71.0727 343° North  Level FlightAware Approximate
12:44AM 0.1085 -71.1088 343° North  Level FlightAware Approximate
12:45AM 0.2241 -71.1450 343° North  Level FlightAware Approximate
12:46AM 0.3397 -71.1811 343° North  Level FlightAware Approximate
12:47AM 0.4553 -71.2172 343° North  Level FlightAware Approximate
12:48AM 0.5709 -71.2534 343° North  Level FlightAware Approximate
12:49AM 0.6866 -71.2895 343° North  Level FlightAware Approximate
12:50AM 0.8022 -71.3257 343° North  Level FlightAware Approximate
12:51AM 0.9178 -71.3618 343° North  Level FlightAware Approximate
12:52AM 1.0335 -71.3979 343° North  Level FlightAware Approximate
12:53AM 1.1492 -71.4340 343° North  Level FlightAware Approximate
12:54AM 1.2648 -71.4701 343° North  Level FlightAware Approximate
12:55AM 1.3804 -71.5062 343° North  Level FlightAware Approximate
12:56AM 1.4961 -71.5423 343° North  Level FlightAware Approximate
12:57AM 1.6117 -71.5784 343° North  Level FlightAware Approximate
12:58AM 1.7273 -71.6145 343° North  Level FlightAware Approximate
12:59AM 1.8430 -71.6506 343° North  Level FlightAware Approximate
01:00AM 1.9586 -71.6867 343° North  Level FlightAware Approximate
01:01AM 2.0743 -71.7228 343° North  Level FlightAware Approximate
01:02AM 2.1899 -71.7589 343° North  Level FlightAware Approximate
01:03AM 2.3056 -71.7951 343° North  Level FlightAware Approximate
01:04AM 2.4212 -71.8312 343° North  Level FlightAware Approximate
01:05AM 2.5368 -71.8673 343° North  Level FlightAware Approximate
01:06AM 2.6525 -71.9035 343° North  Level FlightAware Approximate
01:07AM 2.7681 -71.9396 343° North  Level FlightAware Approximate
01:08AM 2.8837 -71.9758 343° North  Level FlightAware Approximate
01:09AM 2.9993 -72.0119 343° North  Level FlightAware Approximate
01:10AM 3.1150 -72.0481 343° North  Level FlightAware Approximate
01:11AM 3.2306 -72.0843 343° North  Level FlightAware Approximate
01:12AM 3.3462 -72.1205 343° North  Level FlightAware Approximate
01:13AM 3.4618 -72.1567 343° North  Level FlightAware Approximate
01:14AM 3.5773 -72.1928 343° North  Level FlightAware Approximate
01:15AM 3.6927 -72.2290 343° North  Level FlightAware Approximate
01:16AM 3.8081 -72.2652 343° North  Level FlightAware Approximate
01:17AM 3.9236 -72.3014 343° North  Level FlightAware Approximate
01:18AM 4.0390 -72.3375 343° North  Level FlightAware Approximate
01:19AM 4.1544 -72.3737 343° North  Level FlightAware Approximate
01:20AM 4.2698 -72.4100 343° North  Level FlightAware Approximate
01:21AM 4.3853 -72.4462 343° North  Level FlightAware Approximate
01:22AM 4.5007 -72.4824 343° North  Level FlightAware Approximate
01:23AM 4.6161 -72.5186 343° North  Level FlightAware Approximate
01:24AM 4.7315 -72.5549 343° North  Level FlightAware Approximate
01:25AM 4.8470 -72.5911 343° North  Level FlightAware Approximate
01:26AM 4.9624 -72.6274 343° North  Level FlightAware Approximate
01:27AM 5.0778 -72.6637 343° North  Level FlightAware Approximate
01:28AM 5.1932 -72.7000 343° North  Level FlightAware Approximate
01:29AM 5.3086 -72.7363 343° North  Level FlightAware Approximate
01:30AM 5.4240 -72.7727 343° North  Level FlightAware Approximate
01:31AM 5.5394 -72.8090 343° North  Level FlightAware Approximate
01:32AM 5.6548 -72.8453 343° North  Level FlightAware Approximate
01:33AM 5.7702 -72.8817 343° North  Level FlightAware Approximate
01:34AM 5.8856 -72.9180 343° North  Level FlightAware Approximate
01:35AM 6.0010 -72.9543 343° North  Level FlightAware Approximate
01:36AM 6.1164 -72.9907 343° North  Level FlightAware Approximate
01:37AM 6.2319 -73.0271 343° North  Level FlightAware Approximate
01:38AM 6.3472 -73.0635 343° North  Level FlightAware Approximate
01:39AM 6.4626 -73.0999 343° North  Level FlightAware Approximate
01:40AM 6.5781 -73.1363 343° North  Level FlightAware Approximate
01:41AM 6.6934 -73.1727 343° North  Level FlightAware Approximate
01:42AM 6.8088 -73.2092 343° North  Level FlightAware Approximate
01:43AM 6.9242 -73.2457 343° North  Level FlightAware Approximate
01:44AM 7.0396 -73.2822 343° North  Level FlightAware Approximate
01:45AM 7.1550 -73.3187 343° North  Level FlightAware Approximate
01:46AM 7.2704 -73.3552 343° North  Level FlightAware Approximate
01:47AM 7.3858 -73.3918 343° North  Level FlightAware Approximate
01:48AM 7.5012 -73.4283 343° North  Level FlightAware Approximate
01:49AM 7.6165 -73.4649 343° North  Level FlightAware Approximate
01:50AM 7.7319 -73.5015 343° North  Level FlightAware Approximate
01:51AM 7.8473 -73.5382 343° North  Level FlightAware Approximate
01:52AM 7.9626 -73.5748 343° North  Level FlightAware Approximate
01:53AM 8.0780 -73.6115 343° North  Level FlightAware Approximate
01:54AM 8.1933 -73.6482 343° North  Level FlightAware Approximate
01:55AM 8.3087 -73.6849 343° North  Level FlightAware Approximate
01:56AM 8.4240 -73.7216 343° North  Level FlightAware Approximate
01:57AM 8.5394 -73.7584 343° North  Level FlightAware Approximate
01:58AM 8.6547 -73.7952 343° North  Level FlightAware Approximate
01:59AM 8.7701 -73.8320 342° North  Level FlightAware Approximate
02:00AM 8.8854 -73.8688 342° North  Level FlightAware Approximate
02:01AM 9.0007 -73.9056 342° North  Level FlightAware Approximate
02:02AM 9.1161 -73.9425 342° North  Level FlightAware Approximate
02:03AM 9.2314 -73.9794 342° North  Level FlightAware Approximate
02:04AM 9.3467 -74.0163 342° North  Level FlightAware Approximate
02:05AM 9.4620 -74.0533 342° North  Level FlightAware Approximate
02:06AM 9.5773 -74.0902 342° North  Level FlightAware Approximate
02:07AM 9.6927 -74.1272 342° North  Level FlightAware Approximate
02:08AM 9.8080 -74.1642 342° North  Level FlightAware Approximate
02:09AM 9.9233 -74.2013 342° North  Level FlightAware Approximate
02:10AM 10.0386 -74.2383 342° North  Level FlightAware Approximate
02:11AM 10.1539 -74.2754 342° North  Level FlightAware Approximate
02:12AM 10.2691 -74.3126 342° North  Level FlightAware Approximate
02:13AM 10.3844 -74.3497 342° North  Level FlightAware Approximate
02:14AM 10.4997 -74.3869 342° North  Level FlightAware Approximate
02:15AM 10.6150 -74.4241 342° North  Level FlightAware Approximate
02:16AM 10.7303 -74.4613 342° North  Level FlightAware Approximate
02:17AM 10.8455 -74.4986 342° North  Level FlightAware Approximate
02:18AM 10.9608 -74.5359 342° North  Level FlightAware Approximate
02:19AM 11.0761 -74.5732 342° North  Level FlightAware Approximate
02:20AM 11.1913 -74.6105 342° North  Level FlightAware Approximate
02:21AM 11.3066 -74.6479 342° North  Level FlightAware Approximate
02:22AM 11.4218 -74.6853 342° North  Level FlightAware Approximate
02:23AM 11.5371 -74.7228 342° North  Level FlightAware Approximate
02:24AM 11.6523 -74.7602 342° North  Level FlightAware Approximate
02:25AM 11.7675 -74.7977 342° North  Level FlightAware Approximate
02:26AM 11.8827 -74.8353 342° North  Level FlightAware Approximate
02:27AM 11.9980 -74.8728 342° North  Level FlightAware Approximate
02:28AM 12.1132 -74.9104 342° North  Level FlightAware Approximate
02:29AM 12.2284 -74.9481 342° North  Level FlightAware Approximate
02:30AM 12.3436 -74.9858 342° North  Level FlightAware Approximate
02:31AM 12.4587 -75.0236 342° North  Level FlightAware Approximate
02:32AM 12.5739 -75.0614 342° North  Level FlightAware Approximate
02:33AM 12.6891 -75.0992 342° North  Level FlightAware Approximate
02:34AM 12.8042 -75.1371 342° North  Level FlightAware Approximate
02:35AM 12.9194 -75.1750 342° North  Level FlightAware Approximate
02:36AM 13.0345 -75.2130 342° North  Level FlightAware Approximate
02:37AM 13.1497 -75.2509 342° North  Level FlightAware Approximate
02:38AM 13.2648 -75.2890 342° North  Level FlightAware Approximate
02:39AM 13.3800 -75.3270 342° North  Level FlightAware Approximate
02:40AM 13.4951 -75.3651 342° North  Level FlightAware Approximate
02:41AM 13.6102 -75.4032 342° North  Level FlightAware Approximate
02:42AM 13.7253 -75.4414 342° North  Level FlightAware Approximate
02:43AM 13.8404 -75.4796 342° North  Level FlightAware Approximate
02:44AM 13.9555 -75.5178 342° North  Level FlightAware Approximate
02:45AM 14.0706 -75.5561 342° North  Level FlightAware Approximate
02:46AM 14.1857 -75.5944 342° North  Level FlightAware Approximate
02:47AM 14.3008 -75.6328 342° North  Level FlightAware Approximate
02:48AM 14.4159 -75.6711 342° North  Level FlightAware Approximate
02:49AM 14.5310 -75.7096 342° North  Level FlightAware Approximate
02:50AM 14.6460 -75.7480 342° North  Level FlightAware Approximate
02:51AM 14.7611 -75.7866 342° North  Level FlightAware Approximate
02:52AM 14.8762 -75.8251 342° North  Level FlightAware Approximate
02:53AM 14.9912 -75.8637 342° North  Level FlightAware Approximate
02:54AM 15.1063 -75.9023 342° North  Level FlightAware Approximate
02:55AM 15.2213 -75.9409 342° North  Level FlightAware Approximate
02:56AM 15.3364 -75.9795 342° North  Level FlightAware Approximate
02:57AM 15.4514 -76.0182 342° North  Level FlightAware Approximate
02:58AM 15.5665 -76.0570 342° North  Level FlightAware Approximate
02:59AM 15.6815 -76.0957 342° North  Level FlightAware Approximate
03:00AM 15.7965 -76.1346 342° North  Level FlightAware Approximate
03:01AM 15.9115 -76.1734 342° North  Level FlightAware Approximate
03:02AM 16.0265 -76.2123 342° North  Level FlightAware Approximate
03:03AM 16.1415 -76.2513 342° North  Level FlightAware Approximate
03:04AM 16.2565 -76.2903 342° North  Level FlightAware Approximate
03:05AM 16.3715 -76.3294 342° North  Level FlightAware Approximate
03:06AM 16.4865 -76.3684 342° North  Level FlightAware Approximate
03:07AM 16.6015 -76.4076 342° North  Level FlightAware Approximate
03:08AM 16.7164 -76.4468 342° North  Level FlightAware Approximate
03:09AM 16.8314 -76.4860 342° North  Level FlightAware Approximate
03:10AM 16.9464 -76.5253 342° North  Level FlightAware Approximate
03:11AM 17.0613 -76.5646 342° North  Level FlightAware Approximate
03:12AM 17.1762 -76.6040 342° North  Level FlightAware Approximate
03:13AM 17.2912 -76.6434 342° North  Level FlightAware Approximate
03:14AM 17.4061 -76.6829 342° North  Level FlightAware Approximate
03:15AM 17.5210 -76.7224 342° North  Level FlightAware Approximate
03:16AM 17.6359 -76.7620 342° North  Level FlightAware Approximate
03:17AM 17.7508 -76.8016 342° North  Level FlightAware Approximate
03:18AM 17.8657 -76.8413 342° North  Level FlightAware Approximate
03:19AM 17.9806 -76.8810 342° North  Level FlightAware Approximate
03:20AM 18.0954 -76.9208 342° North  Level FlightAware Approximate
03:21AM 18.2103 -76.9606 342° North  Level FlightAware Approximate
03:22AM 18.3252 -77.0005 342° North  Level FlightAware Approximate
03:23AM 18.4400 -77.0405 342° North  Level FlightAware Approximate
03:24AM 18.5549 -77.0804 342° North  Level FlightAware Approximate
03:25AM 18.6697 -77.1205 342° North  Level FlightAware Approximate
03:26AM 18.7845 -77.1606 342° North  Level FlightAware Approximate
03:27AM 18.8993 -77.2007 342° North  Level FlightAware Approximate
03:28AM 19.0141 -77.2409 342° North  Level FlightAware Approximate
03:29AM 19.1289 -77.2812 342° North  Level FlightAware Approximate
03:30AM 19.2437 -77.3215 342° North  Level FlightAware Approximate
03:31AM 19.3585 -77.3619 342° North  Level FlightAware Approximate
03:32AM 19.4732 -77.4024 341° North  Level FlightAware Approximate
03:33AM 19.5878 -77.4435 341° North  Level FlightAware Approximate
03:34AM 19.7023 -77.4847 341° North  Level FlightAware Approximate
03:35AM 19.8169 -77.5260 341° North  Level FlightAware Approximate
03:36AM 19.9314 -77.5674 341° North  Level FlightAware Approximate
03:37AM 20.0459 -77.6088 341° North  Level FlightAware Approximate
03:38AM 20.1604 -77.6502 341° North  Level FlightAware Approximate
03:39AM 20.2749 -77.6917 341° North  Level FlightAware Approximate
03:40AM 20.3894 -77.7333 341° North  Level FlightAware Approximate
03:41AM 20.5038 -77.7750 341° North  Level FlightAware Approximate
03:42AM 20.6183 -77.8167 341° North  Level FlightAware Approximate
03:43AM 20.7327 -77.8584 341° North  Level FlightAware Approximate
03:44AM 20.8472 -77.9003 341° North  Level FlightAware Approximate
03:45AM 20.9616 -77.9422 341° North  Level FlightAware Approximate
03:46AM 21.0760 -77.9841 341° North  Level FlightAware Approximate
03:47AM 21.1905 -78.0261 341° North  Level FlightAware Approximate
03:48AM 21.3048 -78.0682 341° North  Level FlightAware Approximate
03:49AM 21.4192 -78.1104 341° North  Level FlightAware Approximate
03:50AM 21.5336 -78.1526 341° North  Level FlightAware Approximate
03:51AM 21.6480 -78.1949 341° North  Level FlightAware Approximate
03:52AM 21.7624 -78.2372 341° North  Level FlightAware Approximate
03:53AM 21.8767 -78.2797 341° North  Level FlightAware Approximate
03:54AM 21.9910 -78.3222 341° North  Level FlightAware Approximate
03:55AM 22.1054 -78.3647 341° North  Level FlightAware Approximate
03:56AM 22.2197 -78.4072 341° North  Level FlightAware Approximate
03:57AM 22.3343 -78.4491 341° North  Level FlightAware Approximate
03:58AM 22.4489 -78.4911 341° North  Level FlightAware Approximate
03:59AM 22.5634 -78.5331 341° North  Level FlightAware Approximate
03:59AM 23.3094 -78.6189 341° North 458 527 38,000  Level Miami Center
04:00AM 22.6779 -78.5752 341° North  Level FlightAware Approximate
04:00AM 23.4131 -78.6861 329° Northwest 440 506 38,000  Level Miami Center
04:01AM 22.7924 -78.6174 341° North  Level FlightAware Approximate
04:01AM 23.5000 -78.7439 329° Northwest 440 506 38,000  Level Miami Center
04:02AM 22.9070 -78.6596 341° North  Level FlightAware Approximate
04:02AM 23.6181 -78.8206 329° Northwest 447 514 38,000  Level Miami Center
04:03AM 23.0215 -78.7019 341° North  Level FlightAware Approximate
04:03AM 23.7258 -78.8925 329° Northwest 462 532 38,000  Level Miami Center
04:04AM 23.1359 -78.7443 341° North  Level FlightAware Approximate
04:04AM 23.8356 -78.9647 329° Northwest 452 520 38,000  Level Miami Center
04:05AM 23.9453 -79.0369 329° Northwest 451 519 38,000  Level Miami Center
04:06AM 24.0489 -79.1069 328° Northwest 451 519 38,000  Level Miami Center
04:07AM 24.1625 -79.1886 327° Northwest 451 519 38,000  Level Miami Center
04:08AM 24.2786 -79.2364 339° North 451 519 38,000  Level Miami Center
04:09AM 24.4033 -79.2775 343° North 456 525 38,000  Level Miami Center
04:10AM 24.5258 -79.3233 341° North 466 536 38,000  Level Miami Center
04:11AM 24.6486 -79.3669 342° North 460 529 38,000  Level Miami Center
04:12AM 24.7731 -79.4083 343° North 460 529 38,000  Level Miami Center
04:13AM 24.8956 -79.4567 340° North 460 529 38,000  Level Miami Center
04:14AM 25.0181 -79.5006 342° North 460 529 38,000  Level Miami Center
04:15AM 25.1406 -79.5444 342° North 460 529 38,000  Level Miami Center
04:16AM 25.2631 -79.5886 342° North 460 529 38,000  Level Miami Center
04:17AM 25.3856 -79.6328 342° North 460 529 38,000  Level Miami Center
04:18AM 25.5078 -79.6769 342° North 460 529 38,000  Level Miami Center
04:19AM 25.6344 -79.7236 342° North 465 535 38,000  Level Miami Center
04:20AM 25.7547 -79.7658 342° North 458 527 38,000  Level Miami Center
04:21AM 25.8772 -79.8125 341° North 463 533 38,000  Level Miami Center
04:22AM 26.0017 -79.8572 342° North 463 533 38,000  Level Miami Center
04:23AM 26.1217 -79.9019 341° North 456 525 38,000  Level Miami Center
04:24AM 26.2400 -79.9419 343° North 461 531 38,000  Level Miami Center
04:25AM 26.3767 -79.9967 340° North 461 531 38,000  Level Miami Center
04:26AM 26.4947 -80.0414 341° North 455 524 38,000  Level Miami Center
04:27AM 26.6169 -80.0867 342° North 455 524 38,000  Level Miami Center
04:28AM 26.7331 -80.1317 341° North 455 524 38,000  Level Miami Center
04:29AM 26.8383 -80.1789 338° Northwest 455 524 38,000  Level Miami Center
04:30AM 26.9586 -80.2219 342° North 450 518 38,000  Level Miami Center
04:31AM 27.0767 -80.2650 342° North 445 512 38,000  Level Miami Center
04:32AM 27.1967 -80.3106 341° North 445 512 38,000  Level Miami Center
04:33AM 27.3167 -80.3539 342° North 445 512 38,000  Level Miami Center
04:34AM 27.4367 -80.3972 342° North 445 512 38,000  Level Miami Center
04:35AM 27.5547 -80.4406 342° North 445 512 38,000  Level Miami Center
04:36AM 27.6767 -80.4867 341° North 445 512 38,000  Level Miami Center
04:37AM 27.7944 -80.5303 342° North 445 512 38,000  Level Miami Center
04:38AM 27.9228 -80.5792 341° North 445 512 38,000  Level Miami Center
04:39AM 28.0425 -80.6253 341° North 445 512 38,000  Level Miami Center
04:40AM 28.1603 -80.6694 342° North 445 512 38,000  Level Miami Center
04:41AM 28.3489 -80.7417 341° North 450 518 38,000  Level Jacksonville Center
04:42AM 28.4833 -80.7953 341° North 456 525 38,000  Level Jacksonville Center
04:43AM 28.6011 -80.8403 341° North 451 519 38,000  Level Jacksonville Center
04:44AM 28.7186 -80.8875 341° North 446 513 38,000  Level Jacksonville Center
04:45AM 28.8342 -80.9303 342° North 446 513 38,000  Level Jacksonville Center
04:46AM 28.9536 -80.9775 341° North 446 513 38,000  Level Jacksonville Center
04:47AM 29.0714 -81.0253 340° North 446 513 38,000  Level Jacksonville Center
04:48AM 29.1828 -81.0922 332° Northwest 446 513 38,000  Level Jacksonville Center
04:49AM 29.2925 -81.1617 331° Northwest 452 520 38,000  Level Jacksonville Center
04:50AM 29.4019 -81.2289 332° Northwest 452 520 38,000  Level Jacksonville Center
04:51AM 29.4944 -81.2964 328° Northwest 444 511 38,000  Level Jacksonville Center
04:52AM 29.6061 -81.3661 332° Northwest 444 511 38,000  Level Jacksonville Center
04:53AM 29.7156 -81.4386 330° Northwest 449 517 38,000  Level Jacksonville Center
04:54AM 29.8228 -81.5064 331° Northwest 449 517 38,000  Level Jacksonville Center
04:55AM 29.9300 -81.5792 330° Northwest 449 517 38,000  Level Jacksonville Center
04:56AM 30.0392 -81.6472 332° Northwest 449 517 38,000  Level Jacksonville Center
04:57AM 30.1442 -81.7156 331° Northwest 449 517 38,000  Level Jacksonville Center
04:58AM 30.2533 -81.7839 332° Northwest 449 517 38,000 -240 Level Jacksonville Center
04:59AM 30.3708 -81.8597 331° Northwest 443 510 37,600 -840 Descending Jacksonville Center
05:00AM 30.4758 -81.9308 330° Northwest 443 510 36,400 -1,320 Descending Jacksonville Center
05:01AM 30.5808 -82.0047 329° Northwest 444 511 35,000 -1,200 Descending Jacksonville Center
05:02AM 30.6856 -82.0736 331° Northwest 444 511 34,000 -540 Descending Jacksonville Center
05:03AM 30.7906 -82.1453 330° Northwest 444 511 34,000  Level Jacksonville Center
05:05AM 30.9994 -82.2828 331° Northwest 459 528 34,000  Level Atlanta Center
05:06AM 31.1047 -82.3536 330° Northwest 453 521 34,000  Level Atlanta Center
05:07AM 31.2144 -82.4267 330° Northwest 453 521 34,000  Level Atlanta Center
05:08AM 31.3197 -82.5003 329° Northwest 448 516 34,000  Level Atlanta Center
05:09AM 31.4269 -82.5689 331° Northwest 442 509 34,000  Level Atlanta Center
05:10AM 31.5319 -82.6403 330° Northwest 442 509 34,000  Level Atlanta Center
05:11AM 31.6372 -82.7119 330° Northwest 442 509 34,000  Level Atlanta Center
05:12AM 31.7403 -82.7836 329° Northwest 437 503 34,000  Level Atlanta Center
05:13AM 31.8411 -82.8631 326° Northwest 437 503 34,000  Level Atlanta Center
05:14AM 31.9381 -82.9472 324° Northwest 437 503 34,000 -360 Level Atlanta Center
05:15AM 32.0367 -83.0344 323° Northwest 442 509 33,300 -1,320 Descending Atlanta Center
05:16AM 32.1356 -83.1192 324° Northwest 442 509 31,400 -1,980 Descending Atlanta Center
05:17AM 32.2364 -83.2089 323° Northwest 442 509 29,400 -1,920 Descending Atlanta Center
05:18AM 32.3414 -83.2964 325° Northwest 453 521 27,600 -1,620 Descending Atlanta Center
05:19AM 32.4461 -83.3867 324° Northwest 459 528 26,200 -1,200 Descending Atlanta Center
05:20AM 32.5469 -83.4769 323° Northwest 459 528 25,200 -1,140 Descending Atlanta Center
05:21AM 32.6433 -83.5628 323° Northwest 448 516 24,000 -1,800 Descending Atlanta Center
05:22AM 32.7394 -83.6461 324° Northwest 440 506 21,700 -2,520 Descending Atlanta Center
05:23AM 32.8336 -83.7297 323° Northwest 435 501 19,000 -2,700 Descending Atlanta Center
05:24AM 32.9258 -83.8111 323° Northwest 428 493 16,400 -2,640 Descending Atlanta Center
05:25AM 33.0178 -83.8928 323° Northwest 422 486 13,800 -2,400 Descending Atlanta Center
05:26AM 33.0969 -83.9644 323° Northwest 411 473 11,600 -1,800 Descending Atlanta Center
05:27AM 33.1889 -84.0214 333° Northwest 391 450 10,200 -900 Descending Atlanta Center
05:28AM 33.2786 -84.0414 349° North 344 396 9,800 -1,140 Descending Atlanta Center
05:29AM 33.3581 -84.0561 351° North 302 348 8,000 -1,620 Descending Atlanta Center
05:30AM 33.4353 -84.0811 345° North 284 327 6,600 -1,380 Descending Atlanta Center
05:31AM 33.5019 -84.1286 329° Northwest 271 312 5,300 -1,440 Descending Atlanta Center
05:32AM 33.5708 -84.1708 333° Northwest 266 306 3,800 -1,020 Descending Atlanta Center
05:33AM 33.6147 -84.2083 325° Northwest 226 260 3,300 -360 Descending Atlanta Center
05:35AM 33.6333 -84.2667 291° West 170 196 3,100 -360 Descending Atlanta TRACON
05:36AM 33.6500 -84.3167 292° West 138 159 2,600 -600 Descending Atlanta TRACON
05:37AM 33.6500 -84.3500 270° West 125 144 2,000 -660 Descending Atlanta TRACON
05:38AM 33.6500 -84.4000 270° West 130 150 1,300 -660 Descending Atlanta TRACON
05:40AM 33.6333 -84.4167 220° Southwest  Level FlightAware Approximate
05:47AM 33.6367 -84.4279 220° Southwest  Level Estimated